sensor_id;sensor_type;location;lat;lon;timestamp;pressure;altitude;pressure_sealevel;temperature;humidity
4024;BME280;2026;51.002;13.668;2022-07-24T00:03:48;99528.22;;;15.38;68.29
4024;BME280;2026;51.002;13.668;2022-07-24T00:08:51;99524.03;;;15.65;66.65
4024;BME280;2026;51.002;13.668;2022-07-24T00:13:55;99526.25;;;15.73;65.99
4024;BME280;2026;51.002;13.668;2022-07-24T00:18:59;99527.78;;;15.69;65.38
4024;BME280;2026;51.002;13.668;2022-07-24T00:24:03;99517.63;;;15.61;65.63
4024;BME280;2026;51.002;13.668;2022-07-24T00:29:07;99519.84;;;15.47;65.72
4024;BME280;2026;51.002;13.668;2022-07-24T00:34:11;99521.97;;;15.27;66.04
4024;BME280;2026;51.002;13.668;2022-07-24T00:39:14;99525.91;;;15.25;65.98
4024;BME280;2026;51.002;13.668;2022-07-24T00:44:17;99529.09;;;15.27;65.76
4024;BME280;2026;51.002;13.668;2022-07-24T00:49:22;99535.13;;;15.22;65.03
4024;BME280;2026;51.002;13.668;2022-07-24T00:54:27;99533.03;;;15.24;64.92
4024;BME280;2026;51.002;13.668;2022-07-24T00:59:30;99536.47;;;15.02;65.69
4024;BME280;2026;51.002;13.668;2022-07-24T01:04:35;99538.94;;;15.09;65.08
4024;BME280;2026;51.002;13.668;2022-07-24T01:09:38;99543.50;;;15.14;64.50
4024;BME280;2026;51.002;13.668;2022-07-24T01:14:42;99549.44;;;15.04;64.49
4024;BME280;2026;51.002;13.668;2022-07-24T01:19:46;99544.47;;;14.90;64.76
4024;BME280;2026;51.002;13.668;2022-07-24T01:24:51;99551.19;;;14.81;65.04
4024;BME280;2026;51.002;13.668;2022-07-24T01:29:54;99556.00;;;14.67;65.49
4024;BME280;2026;51.002;13.668;2022-07-24T01:34:57;99546.63;;;14.59;65.87
4024;BME280;2026;51.002;13.668;2022-07-24T01:40:01;99552.13;;;14.58;65.66
4024;BME280;2026;51.002;13.668;2022-07-24T01:45:06;99558.47;;;14.57;65.93
4024;BME280;2026;51.002;13.668;2022-07-24T01:50:10;99565.75;;;14.49;65.79
4024;BME280;2026;51.002;13.668;2022-07-24T01:55:14;99559.63;;;14.32;66.53
4024;BME280;2026;51.002;13.668;2022-07-24T02:00:18;99566.53;;;14.33;66.37
4024;BME280;2026;51.002;13.668;2022-07-24T02:05:21;99564.81;;;14.27;66.10
4024;BME280;2026;51.002;13.668;2022-07-24T02:10:26;99567.63;;;14.20;66.09
4024;BME280;2026;51.002;13.668;2022-07-24T02:15:29;99578.66;;;14.17;66.05
4024;BME280;2026;51.002;13.668;2022-07-24T02:20:32;99580.88;;;14.08;66.29
4024;BME280;2026;51.002;13.668;2022-07-24T02:25:36;99580.66;;;13.98;66.75
4024;BME280;2026;51.002;13.668;2022-07-24T02:30:40;99581.16;;;13.94;66.49
4024;BME280;2026;51.002;13.668;2022-07-24T02:35:43;99581.41;;;13.81;66.36
4024;BME280;2026;51.002;13.668;2022-07-24T02:40:47;99587.16;;;13.78;66.46
4024;BME280;2026;51.002;13.668;2022-07-24T02:45:50;99588.84;;;13.72;66.81
4024;BME280;2026;51.002;13.668;2022-07-24T02:50:53;99589.91;;;13.59;67.36
4024;BME280;2026;51.002;13.668;2022-07-24T02:55:58;99592.44;;;13.54;67.52
4024;BME280;2026;51.002;13.668;2022-07-24T03:01:01;99590.72;;;13.60;66.95
4024;BME280;2026;51.002;13.668;2022-07-24T03:06:04;99598.19;;;13.51;67.25
4024;BME280;2026;51.002;13.668;2022-07-24T03:11:09;99589.00;;;13.42;67.61
4024;BME280;2026;51.002;13.668;2022-07-24T03:16:12;99596.47;;;13.33;67.58
4024;BME280;2026;51.002;13.668;2022-07-24T03:21:16;99603.03;;;13.30;67.75
4024;BME280;2026;51.002;13.668;2022-07-24T03:26:40;99595.75;;;13.37;67.78
4024;BME280;2026;51.002;13.668;2022-07-24T03:31:43;99594.06;;;13.31;67.78
4024;BME280;2026;51.002;13.668;2022-07-24T03:36:46;99591.16;;;13.33;67.67
4024;BME280;2026;51.002;13.668;2022-07-24T03:41:51;99602.69;;;13.38;67.56
4024;BME280;2026;51.002;13.668;2022-07-24T03:46:55;99597.75;;;13.30;67.80
4024;BME280;2026;51.002;13.668;2022-07-24T03:51:58;99599.22;;;13.38;67.64
4024;BME280;2026;51.002;13.668;2022-07-24T03:57:02;99602.56;;;13.33;68.21
4024;BME280;2026;51.002;13.668;2022-07-24T04:02:06;99590.38;;;13.32;68.15
4024;BME280;2026;51.002;13.668;2022-07-24T04:07:09;99597.03;;;13.23;68.97
4024;BME280;2026;51.002;13.668;2022-07-24T04:12:13;99592.09;;;13.26;69.18
4024;BME280;2026;51.002;13.668;2022-07-24T04:17:16;99582.69;;;15.12;62.95
4024;BME280;2026;51.002;13.668;2022-07-24T04:22:19;99583.56;;;15.74;61.23
4024;BME280;2026;51.002;13.668;2022-07-24T04:27:24;99591.50;;;17.39;56.46
4024;BME280;2026;51.002;13.668;2022-07-24T04:32:27;99588.41;;;18.22;53.85
4024;BME280;2026;51.002;13.668;2022-07-24T04:37:29;99587.69;;;18.73;52.54
4024;BME280;2026;51.002;13.668;2022-07-24T04:42:34;99592.41;;;19.54;50.15
4024;BME280;2026;51.002;13.668;2022-07-24T04:47:37;99585.94;;;19.86;48.95
4024;BME280;2026;51.002;13.668;2022-07-24T04:52:40;99581.84;;;20.04;48.96
4024;BME280;2026;51.002;13.668;2022-07-24T04:57:45;99583.25;;;20.36;48.47
4024;BME280;2026;51.002;13.668;2022-07-24T05:02:48;99580.72;;;19.50;50.86
4024;BME280;2026;51.002;13.668;2022-07-24T05:07:51;99586.53;;;20.73;48.19
4024;BME280;2026;51.002;13.668;2022-07-24T05:12:55;99590.94;;;21.18;46.21
4024;BME280;2026;51.002;13.668;2022-07-24T05:18:04;99598.75;;;19.79;49.69
4024;BME280;2026;51.002;13.668;2022-07-24T05:23:07;99596.97;;;21.29;46.57
4024;BME280;2026;51.002;13.668;2022-07-24T05:28:11;99593.91;;;21.90;45.46
4024;BME280;2026;51.002;13.668;2022-07-24T05:33:14;99593.19;;;21.05;46.70
4024;BME280;2026;51.002;13.668;2022-07-24T05:38:17;99585.47;;;22.01;45.12
4024;BME280;2026;51.002;13.668;2022-07-24T05:43:22;99588.00;;;21.68;45.61
4024;BME280;2026;51.002;13.668;2022-07-24T05:48:25;99588.56;;;21.90;46.59
4024;BME280;2026;51.002;13.668;2022-07-24T05:53:29;99582.50;;;22.03;45.65
4024;BME280;2026;51.002;13.668;2022-07-24T05:58:33;99579.41;;;21.47;46.37
4024;BME280;2026;51.002;13.668;2022-07-24T06:03:37;99584.94;;;21.80;45.71
4024;BME280;2026;51.002;13.668;2022-07-24T06:08:40;99593.03;;;21.51;46.34
4024;BME280;2026;51.002;13.668;2022-07-24T06:13:45;99588.72;;;22.18;44.31
4024;BME280;2026;51.002;13.668;2022-07-24T06:18:48;99588.53;;;21.70;45.81
4024;BME280;2026;51.002;13.668;2022-07-24T06:23:51;99597.22;;;22.25;44.97
4024;BME280;2026;51.002;13.668;2022-07-24T06:28:55;99590.94;;;22.87;43.76
4024;BME280;2026;51.002;13.668;2022-07-24T06:33:58;99578.88;;;22.71;43.72
4024;BME280;2026;51.002;13.668;2022-07-24T06:39:01;99579.28;;;23.67;41.14
4024;BME280;2026;51.002;13.668;2022-07-24T06:44:06;99581.97;;;23.67;39.89
4024;BME280;2026;51.002;13.668;2022-07-24T06:49:09;99587.34;;;22.92;40.97
4024;BME280;2026;51.002;13.668;2022-07-24T06:54:12;99581.72;;;22.93;39.36
4024;BME280;2026;51.002;13.668;2022-07-24T06:59:16;99578.63;;;24.49;35.41
4024;BME280;2026;51.002;13.668;2022-07-24T07:04:19;99580.91;;;25.10;35.14
4024;BME280;2026;51.002;13.668;2022-07-24T07:09:23;99579.47;;;25.45;34.92
4024;BME280;2026;51.002;13.668;2022-07-24T07:14:27;99578.50;;;24.54;35.54
4024;BME280;2026;51.002;13.668;2022-07-24T07:19:30;99579.66;;;25.48;34.19
4024;BME280;2026;51.002;13.668;2022-07-24T07:24:33;99577.72;;;26.24;33.82
4024;BME280;2026;51.002;13.668;2022-07-24T07:29:38;99579.59;;;26.68;32.60
4024;BME280;2026;51.002;13.668;2022-07-24T07:34:41;99576.75;;;26.03;33.88
4024;BME280;2026;51.002;13.668;2022-07-24T07:39:44;99581.34;;;24.72;34.97
4024;BME280;2026;51.002;13.668;2022-07-24T07:44:49;99579.91;;;25.96;34.89
4024;BME280;2026;51.002;13.668;2022-07-24T07:49:52;99585.31;;;26.58;33.73
4024;BME280;2026;51.002;13.668;2022-07-24T07:54:55;99584.50;;;26.66;32.49
4024;BME280;2026;51.002;13.668;2022-07-24T07:59:59;99578.59;;;25.76;32.95
4024;BME280;2026;51.002;13.668;2022-07-24T08:05:22;99587.66;;;26.86;31.27
4024;BME280;2026;51.002;13.668;2022-07-24T08:10:25;99583.38;;;26.85;30.50
4024;BME280;2026;51.002;13.668;2022-07-24T08:15:30;99584.47;;;24.97;34.12
4024;BME280;2026;51.002;13.668;2022-07-24T08:20:33;99582.38;;;24.02;34.50
4024;BME280;2026;51.002;13.668;2022-07-24T08:25:36;99577.09;;;25.11;33.74
4024;BME280;2026;51.002;13.668;2022-07-24T08:30:41;99577.56;;;26.03;31.56
4024;BME280;2026;51.002;13.668;2022-07-24T08:35:44;99575.97;;;27.51;31.04
4024;BME280;2026;51.002;13.668;2022-07-24T08:40:47;99569.88;;;27.63;30.85
4024;BME280;2026;51.002;13.668;2022-07-24T08:45:54;99571.47;;;25.71;32.83
4024;BME280;2026;51.002;13.668;2022-07-24T08:50:58;99574.94;;;24.22;35.32
4024;BME280;2026;51.002;13.668;2022-07-24T08:56:01;99563.38;;;26.86;32.47
4024;BME280;2026;51.002;13.668;2022-07-24T09:01:06;99556.13;;;27.98;30.83
4024;BME280;2026;51.002;13.668;2022-07-24T09:06:10;99547.13;;;27.64;30.70
4024;BME280;2026;51.002;13.668;2022-07-24T09:11:19;99545.88;;;27.82;30.11
4024;BME280;2026;51.002;13.668;2022-07-24T09:16:25;99551.31;;;25.68;32.58
4024;BME280;2026;51.002;13.668;2022-07-24T09:21:32;99551.88;;;24.67;34.27
4024;BME280;2026;51.002;13.668;2022-07-24T09:26:43;99561.31;;;24.87;33.78
4024;BME280;2026;51.002;13.668;2022-07-24T09:31:56;99550.16;;;26.93;30.88
4024;BME280;2026;51.002;13.668;2022-07-24T09:37:00;99542.97;;;26.41;30.48
4024;BME280;2026;51.002;13.668;2022-07-24T09:42:05;99542.88;;;27.32;31.72
4024;BME280;2026;51.002;13.668;2022-07-24T09:47:11;99543.91;;;25.92;30.59
4024;BME280;2026;51.002;13.668;2022-07-24T09:52:17;99542.59;;;27.25;30.39
4024;BME280;2026;51.002;13.668;2022-07-24T09:57:25;99539.34;;;26.01;31.47
4024;BME280;2026;51.002;13.668;2022-07-24T10:02:32;99535.09;;;28.25;28.29
4024;BME280;2026;51.002;13.668;2022-07-24T10:07:37;99528.81;;;27.48;28.78
4024;BME280;2026;51.002;13.668;2022-07-24T10:12:40;99542.06;;;25.43;31.72
4024;BME280;2026;51.002;13.668;2022-07-24T10:18:14;99531.38;;;25.87;32.42
4024;BME280;2026;51.002;13.668;2022-07-24T10:23:22;99531.78;;;26.86;30.51
4024;BME280;2026;51.002;13.668;2022-07-24T10:28:38;99534.06;;;26.67;30.57
4024;BME280;2026;51.002;13.668;2022-07-24T10:33:46;99527.97;;;26.87;31.00
4024;BME280;2026;51.002;13.668;2022-07-24T10:38:57;99527.25;;;26.51;30.16
4024;BME280;2026;51.002;13.668;2022-07-24T10:44:15;99517.94;;;28.21;27.75
4024;BME280;2026;51.002;13.668;2022-07-24T10:49:35;99508.69;;;28.22;27.78
4024;BME280;2026;51.002;13.668;2022-07-24T10:54:39;99504.66;;;27.43;28.05
4024;BME280;2026;51.002;13.668;2022-07-24T10:59:43;99504.91;;;26.33;30.36
4024;BME280;2026;51.002;13.668;2022-07-24T11:05:25;99504.16;;;25.98;30.14
4024;BME280;2026;51.002;13.668;2022-07-24T11:10:44;99491.22;;;25.33;30.68
4024;BME280;2026;51.002;13.668;2022-07-24T11:16:21;99498.06;;;25.48;30.23
4024;BME280;2026;51.002;13.668;2022-07-24T11:21:33;99493.13;;;25.32;31.50
4024;BME280;2026;51.002;13.668;2022-07-24T11:26:48;99482.88;;;26.88;30.33
4024;BME280;2026;51.002;13.668;2022-07-24T11:31:58;99484.66;;;28.54;27.26
4024;BME280;2026;51.002;13.668;2022-07-24T11:37:04;99472.84;;;28.71;26.55
4024;BME280;2026;51.002;13.668;2022-07-24T11:42:14;99469.22;;;28.08;27.17
4024;BME280;2026;51.002;13.668;2022-07-24T11:47:19;99470.69;;;27.42;28.70
4024;BME280;2026;51.002;13.668;2022-07-24T11:52:27;99462.53;;;27.29;28.39
4024;BME280;2026;51.002;13.668;2022-07-24T11:57:33;99462.13;;;28.04;27.12
4024;BME280;2026;51.002;13.668;2022-07-24T12:02:58;99454.41;;;26.99;27.93
4024;BME280;2026;51.002;13.668;2022-07-24T12:08:17;99454.47;;;28.06;28.33
4024;BME280;2026;51.002;13.668;2022-07-24T12:13:20;99458.91;;;27.16;28.40
4024;BME280;2026;51.002;13.668;2022-07-24T12:18:23;99443.16;;;27.91;27.43
4024;BME280;2026;51.002;13.668;2022-07-24T12:23:34;99432.84;;;28.64;25.94
4024;BME280;2026;51.002;13.668;2022-07-24T12:28:37;99418.66;;;28.21;27.29
4024;BME280;2026;51.002;13.668;2022-07-24T12:33:52;99421.31;;;27.11;27.93
4024;BME280;2026;51.002;13.668;2022-07-24T12:38:58;99426.19;;;26.88;28.20
4024;BME280;2026;51.002;13.668;2022-07-24T12:44:03;99423.03;;;26.86;27.94
4024;BME280;2026;51.002;13.668;2022-07-24T12:49:09;99412.94;;;28.35;26.05
4024;BME280;2026;51.002;13.668;2022-07-24T12:54:17;99415.66;;;27.89;26.78
4024;BME280;2026;51.002;13.668;2022-07-24T12:59:25;99401.81;;;27.69;27.16
4024;BME280;2026;51.002;13.668;2022-07-24T13:04:29;99398.28;;;27.56;27.09
4024;BME280;2026;51.002;13.668;2022-07-24T13:09:34;99391.59;;;27.75;26.53
4024;BME280;2026;51.002;13.668;2022-07-24T13:14:39;99390.59;;;27.46;26.96
4024;BME280;2026;51.002;13.668;2022-07-24T13:19:44;99389.00;;;28.00;27.38
4024;BME280;2026;51.002;13.668;2022-07-24T13:24:49;99378.03;;;28.67;26.69
4024;BME280;2026;51.002;13.668;2022-07-24T13:29:52;99365.13;;;29.71;25.04
4024;BME280;2026;51.002;13.668;2022-07-24T13:34:55;99358.34;;;29.49;25.29
4024;BME280;2026;51.002;13.668;2022-07-24T13:39:59;99358.50;;;29.40;24.47
4024;BME280;2026;51.002;13.668;2022-07-24T13:45:03;99348.28;;;27.50;26.25
4024;BME280;2026;51.002;13.668;2022-07-24T13:50:08;99340.25;;;27.75;26.22
4024;BME280;2026;51.002;13.668;2022-07-24T13:55:14;99334.25;;;27.36;26.17
4024;BME280;2026;51.002;13.668;2022-07-24T14:00:17;99336.84;;;27.66;25.75
4024;BME280;2026;51.002;13.668;2022-07-24T14:05:20;99330.50;;;27.95;25.82
4024;BME280;2026;51.002;13.668;2022-07-24T14:10:25;99329.78;;;28.07;25.33
4024;BME280;2026;51.002;13.668;2022-07-24T14:15:28;99317.13;;;28.11;25.25
4024;BME280;2026;51.002;13.668;2022-07-24T14:20:31;99311.38;;;28.00;25.89
4024;BME280;2026;51.002;13.668;2022-07-24T14:25:36;99316.03;;;28.50;25.54
4024;BME280;2026;51.002;13.668;2022-07-24T14:30:39;99312.84;;;28.10;25.37
4024;BME280;2026;51.002;13.668;2022-07-24T14:35:42;99303.22;;;27.42;26.09
4024;BME280;2026;51.002;13.668;2022-07-24T14:40:47;99304.22;;;27.71;26.36
4024;BME280;2026;51.002;13.668;2022-07-24T14:45:50;99296.75;;;28.26;25.14
4024;BME280;2026;51.002;13.668;2022-07-24T14:50:53;99293.81;;;29.38;24.49
4024;BME280;2026;51.002;13.668;2022-07-24T14:55:57;99284.09;;;29.82;24.32
4024;BME280;2026;51.002;13.668;2022-07-24T15:01:01;99276.53;;;29.59;24.10
4024;BME280;2026;51.002;13.668;2022-07-24T15:06:04;99269.06;;;29.85;23.40
4024;BME280;2026;51.002;13.668;2022-07-24T15:11:09;99278.72;;;28.18;24.22
4024;BME280;2026;51.002;13.668;2022-07-24T15:16:12;99265.28;;;29.00;24.33
4024;BME280;2026;51.002;13.668;2022-07-24T15:21:15;99271.97;;;27.99;24.71
4024;BME280;2026;51.002;13.668;2022-07-24T15:26:20;99267.81;;;28.80;24.10
4024;BME280;2026;51.002;13.668;2022-07-24T15:31:24;99262.09;;;29.39;23.07
4024;BME280;2026;51.002;13.668;2022-07-24T15:36:30;99253.44;;;29.33;24.05
4024;BME280;2026;51.002;13.668;2022-07-24T15:41:38;99247.91;;;27.60;25.09
4024;BME280;2026;51.002;13.668;2022-07-24T15:46:42;99241.47;;;28.65;24.56
4024;BME280;2026;51.002;13.668;2022-07-24T15:51:51;99245.59;;;28.09;24.95
4024;BME280;2026;51.002;13.668;2022-07-24T15:56:55;99240.03;;;27.55;25.28
4024;BME280;2026;51.002;13.668;2022-07-24T16:01:58;99241.16;;;27.67;25.25
4024;BME280;2026;51.002;13.668;2022-07-24T16:07:01;99229.28;;;27.93;25.43
4024;BME280;2026;51.002;13.668;2022-07-24T16:12:07;99221.72;;;28.23;24.53
4024;BME280;2026;51.002;13.668;2022-07-24T16:17:13;99228.31;;;28.38;25.04
4024;BME280;2026;51.002;13.668;2022-07-24T16:22:17;99224.75;;;28.47;24.26
4024;BME280;2026;51.002;13.668;2022-07-24T16:27:21;99210.53;;;28.37;24.60
4024;BME280;2026;51.002;13.668;2022-07-24T16:32:24;99210.22;;;28.14;24.65
4024;BME280;2026;51.002;13.668;2022-07-24T16:37:27;99211.97;;;27.47;25.53
4024;BME280;2026;51.002;13.668;2022-07-24T16:42:32;99205.25;;;27.66;25.41
4024;BME280;2026;51.002;13.668;2022-07-24T16:47:35;99193.88;;;27.60;25.64
4024;BME280;2026;51.002;13.668;2022-07-24T16:52:38;99196.44;;;28.32;24.77
4024;BME280;2026;51.002;13.668;2022-07-24T16:57:56;99186.66;;;28.14;25.06
4024;BME280;2026;51.002;13.668;2022-07-24T17:02:59;99193.41;;;27.58;25.33
4024;BME280;2026;51.002;13.668;2022-07-24T17:08:02;99193.41;;;27.83;24.79
4024;BME280;2026;51.002;13.668;2022-07-24T17:13:06;99188.94;;;27.63;25.46
4024;BME280;2026;51.002;13.668;2022-07-24T17:18:09;99181.03;;;27.45;25.96
4024;BME280;2026;51.002;13.668;2022-07-24T17:23:13;99182.81;;;27.41;25.81
4024;BME280;2026;51.002;13.668;2022-07-24T17:28:17;99183.38;;;27.00;26.35
4024;BME280;2026;51.002;13.668;2022-07-24T17:33:20;99175.69;;;26.90;26.97
4024;BME280;2026;51.002;13.668;2022-07-24T17:38:24;99176.50;;;26.69;26.95
4024;BME280;2026;51.002;13.668;2022-07-24T17:43:29;99174.94;;;26.68;27.02
4024;BME280;2026;51.002;13.668;2022-07-24T17:48:32;99178.88;;;26.71;27.04
4024;BME280;2026;51.002;13.668;2022-07-24T17:53:35;99177.09;;;26.75;27.07
4024;BME280;2026;51.002;13.668;2022-07-24T17:58:39;99175.97;;;26.55;27.25
4024;BME280;2026;51.002;13.668;2022-07-24T18:03:42;99172.69;;;26.49;27.34
4024;BME280;2026;51.002;13.668;2022-07-24T18:08:48;99162.41;;;26.42;27.20
4024;BME280;2026;51.002;13.668;2022-07-24T18:13:53;99163.06;;;26.39;28.50
4024;BME280;2026;51.002;13.668;2022-07-24T18:18:56;99168.69;;;26.04;30.85
4024;BME280;2026;51.002;13.668;2022-07-24T18:23:59;99176.88;;;25.77;31.10
4024;BME280;2026;51.002;13.668;2022-07-24T18:29:04;99178.97;;;24.97;32.16
4024;BME280;2026;51.002;13.668;2022-07-24T18:34:07;99182.94;;;25.00;32.98
4024;BME280;2026;51.002;13.668;2022-07-24T18:39:11;99176.91;;;25.21;32.12
4024;BME280;2026;51.002;13.668;2022-07-24T18:44:17;99181.97;;;25.13;32.03
4024;BME280;2026;51.002;13.668;2022-07-24T18:49:20;99190.53;;;24.98;32.71
4024;BME280;2026;51.002;13.668;2022-07-24T18:54:30;99191.03;;;24.82;32.73
4024;BME280;2026;51.002;13.668;2022-07-24T18:59:34;99192.13;;;24.64;33.15
4024;BME280;2026;51.002;13.668;2022-07-24T19:04:38;99192.56;;;24.48;33.35
4024;BME280;2026;51.002;13.668;2022-07-24T19:09:41;99185.56;;;24.29;33.34
4024;BME280;2026;51.002;13.668;2022-07-24T19:14:45;99191.72;;;24.21;33.79
4024;BME280;2026;51.002;13.668;2022-07-24T19:19:48;99198.94;;;23.94;34.37
4024;BME280;2026;51.002;13.668;2022-07-24T19:24:51;99205.38;;;23.84;34.47
4024;BME280;2026;51.002;13.668;2022-07-24T19:30:05;99210.81;;;23.70;34.87
4024;BME280;2026;51.002;13.668;2022-07-24T19:35:09;99203.78;;;23.51;35.23
4024;BME280;2026;51.002;13.668;2022-07-24T19:40:13;99198.94;;;23.31;35.78
4024;BME280;2026;51.002;13.668;2022-07-24T19:45:17;99204.41;;;23.03;35.91
4024;BME280;2026;51.002;13.668;2022-07-24T19:50:20;99215.03;;;22.94;36.01
4024;BME280;2026;51.002;13.668;2022-07-24T19:55:43;99214.66;;;22.87;36.71
4024;BME280;2026;51.002;13.668;2022-07-24T20:00:48;99214.63;;;22.78;37.44
4024;BME280;2026;51.002;13.668;2022-07-24T20:05:51;99211.69;;;22.51;37.63
4024;BME280;2026;51.002;13.668;2022-07-24T20:10:55;99207.81;;;22.44;38.03
4024;BME280;2026;51.002;13.668;2022-07-24T20:15:59;99201.09;;;22.32;38.37
4024;BME280;2026;51.002;13.668;2022-07-24T20:21:03;99198.72;;;22.17;38.45
4024;BME280;2026;51.002;13.668;2022-07-24T20:26:06;99203.06;;;22.12;38.51
4024;BME280;2026;51.002;13.668;2022-07-24T20:31:11;99202.38;;;21.93;39.37
4024;BME280;2026;51.002;13.668;2022-07-24T20:36:14;99210.09;;;21.80;40.02
4024;BME280;2026;51.002;13.668;2022-07-24T20:41:18;99202.94;;;21.62;40.59
4024;BME280;2026;51.002;13.668;2022-07-24T20:46:22;99199.41;;;21.47;40.89
4024;BME280;2026;51.002;13.668;2022-07-24T20:51:25;99195.56;;;21.39;40.68
4024;BME280;2026;51.002;13.668;2022-07-24T20:56:32;99193.00;;;21.15;41.64
4024;BME280;2026;51.002;13.668;2022-07-24T21:01:36;99198.94;;;21.12;42.34
4024;BME280;2026;51.002;13.668;2022-07-24T21:06:39;99201.91;;;20.91;42.24
4024;BME280;2026;51.002;13.668;2022-07-24T21:11:42;99198.16;;;20.92;43.02
4024;BME280;2026;51.002;13.668;2022-07-24T21:16:47;99195.69;;;20.76;42.76
4024;BME280;2026;51.002;13.668;2022-07-24T21:21:50;99204.38;;;20.68;42.72
4024;BME280;2026;51.002;13.668;2022-07-24T21:26:53;99201.38;;;20.50;42.81
4024;BME280;2026;51.002;13.668;2022-07-24T21:31:57;99203.06;;;20.41;43.81
4024;BME280;2026;51.002;13.668;2022-07-24T21:37:01;99204.97;;;20.41;44.24
4024;BME280;2026;51.002;13.668;2022-07-24T21:42:04;99200.94;;;20.19;44.13
4024;BME280;2026;51.002;13.668;2022-07-24T21:47:08;99197.59;;;20.08;44.66
4024;BME280;2026;51.002;13.668;2022-07-24T21:52:11;99212.31;;;19.76;45.73
4024;BME280;2026;51.002;13.668;2022-07-24T21:57:16;99202.66;;;19.85;45.86
4024;BME280;2026;51.002;13.668;2022-07-24T22:02:20;99202.97;;;19.78;45.49
4024;BME280;2026;51.002;13.668;2022-07-24T22:07:23;99195.75;;;19.79;45.60
4024;BME280;2026;51.002;13.668;2022-07-24T22:12:26;99196.19;;;19.32;46.66
4024;BME280;2026;51.002;13.668;2022-07-24T22:17:30;99182.75;;;19.42;46.70
4024;BME280;2026;51.002;13.668;2022-07-24T22:22:33;99191.09;;;19.36;46.73
4024;BME280;2026;51.002;13.668;2022-07-24T22:27:36;99180.44;;;19.36;46.86
4024;BME280;2026;51.002;13.668;2022-07-24T22:32:41;99177.13;;;19.14;47.40
4024;BME280;2026;51.002;13.668;2022-07-24T22:37:45;99180.81;;;19.19;47.44
4024;BME280;2026;51.002;13.668;2022-07-24T22:42:49;99181.44;;;19.05;47.73
4024;BME280;2026;51.002;13.668;2022-07-24T22:47:54;99180.38;;;19.06;47.72
4024;BME280;2026;51.002;13.668;2022-07-24T22:52:59;99176.75;;;18.86;48.15
4024;BME280;2026;51.002;13.668;2022-07-24T22:58:03;99176.03;;;18.76;48.14
4024;BME280;2026;51.002;13.668;2022-07-24T23:03:07;99163.00;;;18.69;48.37
4024;BME280;2026;51.002;13.668;2022-07-24T23:08:12;99156.38;;;18.66;48.44
4024;BME280;2026;51.002;13.668;2022-07-24T23:13:15;99160.41;;;18.58;49.23
4024;BME280;2026;51.002;13.668;2022-07-24T23:18:19;99147.09;;;18.53;49.16
4024;BME280;2026;51.002;13.668;2022-07-24T23:23:22;99140.81;;;18.39;49.75
4024;BME280;2026;51.002;13.668;2022-07-24T23:28:25;99133.63;;;18.34;49.97
4024;BME280;2026;51.002;13.668;2022-07-24T23:33:30;99138.75;;;18.30;49.72
4024;BME280;2026;51.002;13.668;2022-07-24T23:38:33;99136.34;;;18.29;50.22
4024;BME280;2026;51.002;13.668;2022-07-24T23:43:35;99132.41;;;18.16;50.75
4024;BME280;2026;51.002;13.668;2022-07-24T23:48:40;99121.78;;;18.11;50.87
4024;BME280;2026;51.002;13.668;2022-07-24T23:53:43;99123.38;;;18.07;50.62
4024;BME280;2026;51.002;13.668;2022-07-24T23:58:46;99115.69;;;17.95;50.92
